sensor_id;sensor_type;location;lat;lon;timestamp;P1;durP1;ratioP1;P2;durP2;ratioP2
1507;SDS011;745;48.586;10.032;2023-04-25T00:01:13;5.70;;;3.90;;
1507;SDS011;745;48.586;10.032;2023-04-25T00:05:45;3.90;;;3.60;;
1507;SDS011;745;48.586;10.032;2023-04-25T00:10:15;5.30;;;3.80;;
1507;SDS011;745;48.586;10.032;2023-04-25T00:14:48;3.77;;;3.40;;
1507;SDS011;745;48.586;10.032;2023-04-25T00:19:21;4.40;;;3.70;;
1507;SDS011;745;48.586;10.032;2023-04-25T00:23:55;5.43;;;4.27;;
1507;SDS011;745;48.586;10.032;2023-04-25T00:28:26;4.57;;;4.00;;
1507;SDS011;745;48.586;10.032;2023-04-25T00:32:57;4.93;;;3.97;;
1507;SDS011;745;48.586;10.032;2023-04-25T00:37:32;6.73;;;3.97;;
1507;SDS011;745;48.586;10.032;2023-04-25T00:42:03;4.50;;;3.70;;
1507;SDS011;745;48.586;10.032;2023-04-25T00:46:34;5.43;;;4.93;;
1507;SDS011;745;48.586;10.032;2023-04-25T00:51:05;3.93;;;3.53;;
1507;SDS011;745;48.586;10.032;2023-04-25T00:55:48;5.40;;;3.40;;
1507;SDS011;745;48.586;10.032;2023-04-25T01:00:20;3.80;;;3.50;;
1507;SDS011;745;48.586;10.032;2023-04-25T01:05:04;4.13;;;3.10;;
1507;SDS011;745;48.586;10.032;2023-04-25T01:09:40;5.63;;;3.77;;
1507;SDS011;745;48.586;10.032;2023-04-25T01:14:11;5.03;;;3.80;;
1507;SDS011;745;48.586;10.032;2023-04-25T01:18:41;4.23;;;3.80;;
1507;SDS011;745;48.586;10.032;2023-04-25T01:23:12;5.50;;;3.50;;
1507;SDS011;745;48.586;10.032;2023-04-25T01:27:43;5.37;;;4.30;;
1507;SDS011;745;48.586;10.032;2023-04-25T01:32:13;4.53;;;4.00;;
1507;SDS011;745;48.586;10.032;2023-04-25T01:36:51;3.33;;;3.03;;
1507;SDS011;745;48.586;10.032;2023-04-25T01:41:23;4.30;;;3.80;;
1507;SDS011;745;48.586;10.032;2023-04-25T01:46:04;4.90;;;3.67;;
1507;SDS011;745;48.586;10.032;2023-04-25T01:50:48;4.40;;;4.00;;
1507;SDS011;745;48.586;10.032;2023-04-25T01:55:18;4.83;;;3.93;;
1507;SDS011;745;48.586;10.032;2023-04-25T01:59:48;4.80;;;3.67;;
1507;SDS011;745;48.586;10.032;2023-04-25T02:04:19;8.00;;;4.17;;
1507;SDS011;745;48.586;10.032;2023-04-25T02:08:49;6.93;;;5.07;;
1507;SDS011;745;48.586;10.032;2023-04-25T02:13:20;5.37;;;4.30;;
1507;SDS011;745;48.586;10.032;2023-04-25T02:17:50;10.23;;;4.00;;
1507;SDS011;745;48.586;10.032;2023-04-25T02:22:22;5.07;;;4.00;;
1507;SDS011;745;48.586;10.032;2023-04-25T02:26:53;5.50;;;4.47;;
1507;SDS011;745;48.586;10.032;2023-04-25T02:31:23;7.53;;;4.13;;
1507;SDS011;745;48.586;10.032;2023-04-25T02:36:01;4.57;;;4.10;;
1507;SDS011;745;48.586;10.032;2023-04-25T02:40:36;4.57;;;4.17;;
1507;SDS011;745;48.586;10.032;2023-04-25T02:45:07;5.40;;;4.70;;
1507;SDS011;745;48.586;10.032;2023-04-25T02:49:38;6.17;;;4.10;;
1507;SDS011;745;48.586;10.032;2023-04-25T02:54:08;5.80;;;3.80;;
1507;SDS011;745;48.586;10.032;2023-04-25T02:58:38;3.93;;;3.57;;
1507;SDS011;745;48.586;10.032;2023-04-25T03:03:10;3.80;;;3.40;;
1507;SDS011;745;48.586;10.032;2023-04-25T03:07:52;6.00;;;4.10;;
1507;SDS011;745;48.586;10.032;2023-04-25T03:12:30;4.60;;;3.67;;
1507;SDS011;745;48.586;10.032;2023-04-25T03:17:00;4.97;;;4.43;;
1507;SDS011;745;48.586;10.032;2023-04-25T03:21:31;4.57;;;4.10;;
1507;SDS011;745;48.586;10.032;2023-04-25T03:26:03;4.97;;;4.50;;
1507;SDS011;745;48.586;10.032;2023-04-25T03:30:34;4.83;;;4.27;;
1507;SDS011;745;48.586;10.032;2023-04-25T03:35:04;4.70;;;4.20;;
1507;SDS011;745;48.586;10.032;2023-04-25T03:39:35;4.77;;;4.37;;
1507;SDS011;745;48.586;10.032;2023-04-25T03:44:05;4.57;;;3.80;;
1507;SDS011;745;48.586;10.032;2023-04-25T03:48:36;7.73;;;4.30;;
1507;SDS011;745;48.586;10.032;2023-04-25T03:53:06;8.00;;;4.27;;
1507;SDS011;745;48.586;10.032;2023-04-25T03:57:37;4.97;;;4.47;;
1507;SDS011;745;48.586;10.032;2023-04-25T04:02:08;5.03;;;4.37;;
1507;SDS011;745;48.586;10.032;2023-04-25T04:06:45;4.90;;;4.10;;
1507;SDS011;745;48.586;10.032;2023-04-25T04:11:15;4.63;;;4.20;;
1507;SDS011;745;48.586;10.032;2023-04-25T04:15:46;5.67;;;4.60;;
1507;SDS011;745;48.586;10.032;2023-04-25T04:20:16;5.37;;;3.93;;
1507;SDS011;745;48.586;10.032;2023-04-25T04:24:48;5.27;;;4.77;;
1507;SDS011;745;48.586;10.032;2023-04-25T04:29:20;3.20;;;3.00;;
1507;SDS011;745;48.586;10.032;2023-04-25T04:33:51;4.40;;;3.70;;
1507;SDS011;745;48.586;10.032;2023-04-25T04:38:22;4.30;;;3.80;;
1507;SDS011;745;48.586;10.032;2023-04-25T04:42:53;5.20;;;4.57;;
1507;SDS011;745;48.586;10.032;2023-04-25T04:47:28;6.17;;;5.57;;
1507;SDS011;745;48.586;10.032;2023-04-25T04:52:02;7.37;;;6.67;;
1507;SDS011;745;48.586;10.032;2023-04-25T04:56:32;8.57;;;7.70;;
1507;SDS011;745;48.586;10.032;2023-04-25T05:01:03;9.60;;;7.60;;
1507;SDS011;745;48.586;10.032;2023-04-25T05:05:39;5.90;;;5.30;;
1507;SDS011;745;48.586;10.032;2023-04-25T05:10:19;5.70;;;4.77;;
1507;SDS011;745;48.586;10.032;2023-04-25T05:14:49;6.30;;;5.23;;
1507;SDS011;745;48.586;10.032;2023-04-25T05:19:20;5.40;;;4.57;;
1507;SDS011;745;48.586;10.032;2023-04-25T05:23:51;6.80;;;5.40;;
1507;SDS011;745;48.586;10.032;2023-04-25T05:28:21;4.90;;;4.40;;
1507;SDS011;745;48.586;10.032;2023-04-25T05:32:51;8.90;;;5.10;;
1507;SDS011;745;48.586;10.032;2023-04-25T05:37:22;27.23;;;18.63;;
1507;SDS011;745;48.586;10.032;2023-04-25T05:41:52;23.27;;;13.93;;
1507;SDS011;745;48.586;10.032;2023-04-25T05:46:24;12.23;;;8.77;;
1507;SDS011;745;48.586;10.032;2023-04-25T05:50:55;19.67;;;13.13;;
1507;SDS011;745;48.586;10.032;2023-04-25T05:55:25;11.87;;;7.43;;
1507;SDS011;745;48.586;10.032;2023-04-25T05:59:56;8.73;;;6.17;;
1507;SDS011;745;48.586;10.032;2023-04-25T06:04:28;7.90;;;6.73;;
1507;SDS011;745;48.586;10.032;2023-04-25T06:08:59;6.13;;;5.23;;
1507;SDS011;745;48.586;10.032;2023-04-25T06:13:30;5.80;;;4.70;;
1507;SDS011;745;48.586;10.032;2023-04-25T06:18:00;5.57;;;4.70;;
1507;SDS011;745;48.586;10.032;2023-04-25T06:22:31;5.53;;;4.10;;
1507;SDS011;745;48.586;10.032;2023-04-25T06:27:01;6.37;;;4.60;;
1507;SDS011;745;48.586;10.032;2023-04-25T06:31:31;7.13;;;5.40;;
1507;SDS011;745;48.586;10.032;2023-04-25T06:36:03;11.50;;;7.27;;
1507;SDS011;745;48.586;10.032;2023-04-25T06:40:33;5.63;;;4.10;;
1507;SDS011;745;48.586;10.032;2023-04-25T06:45:04;4.90;;;4.40;;
1507;SDS011;745;48.586;10.032;2023-04-25T06:49:35;4.03;;;3.60;;
1507;SDS011;745;48.586;10.032;2023-04-25T06:54:05;6.13;;;4.60;;
1507;SDS011;745;48.586;10.032;2023-04-25T06:58:36;6.20;;;4.27;;
1507;SDS011;745;48.586;10.032;2023-04-25T07:03:06;10.50;;;5.13;;
1507;SDS011;745;48.586;10.032;2023-04-25T07:07:39;5.80;;;4.27;;
1507;SDS011;745;48.586;10.032;2023-04-25T07:12:10;9.07;;;4.90;;
1507;SDS011;745;48.586;10.032;2023-04-25T07:16:40;9.03;;;4.47;;
1507;SDS011;745;48.586;10.032;2023-04-25T07:21:11;5.60;;;4.10;;
1507;SDS011;745;48.586;10.032;2023-04-25T07:25:42;7.10;;;4.57;;
1507;SDS011;745;48.586;10.032;2023-04-25T07:30:12;9.70;;;4.80;;
1507;SDS011;745;48.586;10.032;2023-04-25T07:34:43;6.87;;;6.17;;
1507;SDS011;745;48.586;10.032;2023-04-25T07:39:13;5.33;;;4.83;;
1507;SDS011;745;48.586;10.032;2023-04-25T07:43:43;5.43;;;4.80;;
1507;SDS011;745;48.586;10.032;2023-04-25T07:48:32;6.03;;;5.10;;
1507;SDS011;745;48.586;10.032;2023-04-25T07:53:03;7.83;;;5.93;;
1507;SDS011;745;48.586;10.032;2023-04-25T07:57:33;6.30;;;5.13;;
1507;SDS011;745;48.586;10.032;2023-04-25T08:02:04;6.33;;;4.67;;
1507;SDS011;745;48.586;10.032;2023-04-25T08:06:36;6.10;;;4.60;;
1507;SDS011;745;48.586;10.032;2023-04-25T08:11:06;6.60;;;4.40;;
1507;SDS011;745;48.586;10.032;2023-04-25T08:15:37;4.73;;;4.20;;
1507;SDS011;745;48.586;10.032;2023-04-25T08:20:07;5.60;;;4.70;;
1507;SDS011;745;48.586;10.032;2023-04-25T08:24:38;4.70;;;4.30;;
1507;SDS011;745;48.586;10.032;2023-04-25T08:29:09;4.40;;;3.97;;
1507;SDS011;745;48.586;10.032;2023-04-25T08:33:39;5.37;;;4.63;;
1507;SDS011;745;48.586;10.032;2023-04-25T08:38:10;4.77;;;4.10;;
1507;SDS011;745;48.586;10.032;2023-04-25T08:42:41;4.33;;;3.93;;
1507;SDS011;745;48.586;10.032;2023-04-25T08:47:12;5.73;;;3.77;;
1507;SDS011;745;48.586;10.032;2023-04-25T08:51:44;5.27;;;4.03;;
1507;SDS011;745;48.586;10.032;2023-04-25T08:56:17;5.23;;;4.10;;
1507;SDS011;745;48.586;10.032;2023-04-25T09:00:48;6.00;;;5.30;;
1507;SDS011;745;48.586;10.032;2023-04-25T09:05:19;4.60;;;4.20;;
1507;SDS011;745;48.586;10.032;2023-04-25T09:09:50;5.53;;;4.00;;
1507;SDS011;745;48.586;10.032;2023-04-25T09:14:21;5.60;;;4.50;;
1507;SDS011;745;48.586;10.032;2023-04-25T09:18:55;5.20;;;4.30;;
1507;SDS011;745;48.586;10.032;2023-04-25T09:23:26;4.43;;;4.03;;
1507;SDS011;745;48.586;10.032;2023-04-25T09:27:56;6.10;;;5.50;;
1507;SDS011;745;48.586;10.032;2023-04-25T09:32:27;5.07;;;4.57;;
1507;SDS011;745;48.586;10.032;2023-04-25T09:37:01;4.27;;;3.40;;
1507;SDS011;745;48.586;10.032;2023-04-25T09:41:31;2.70;;;2.50;;
1507;SDS011;745;48.586;10.032;2023-04-25T09:46:02;5.17;;;3.60;;
1507;SDS011;745;48.586;10.032;2023-04-25T09:50:38;2.50;;;2.30;;
1507;SDS011;745;48.586;10.032;2023-04-25T09:55:09;3.10;;;2.80;;
1507;SDS011;745;48.586;10.032;2023-04-25T09:59:42;3.83;;;3.17;;
1507;SDS011;745;48.586;10.032;2023-04-25T10:04:15;4.20;;;3.40;;
1507;SDS011;745;48.586;10.032;2023-04-25T10:08:49;3.80;;;3.50;;
1507;SDS011;745;48.586;10.032;2023-04-25T10:13:21;4.13;;;3.70;;
1507;SDS011;745;48.586;10.032;2023-04-25T10:17:52;6.27;;;3.63;;
1507;SDS011;745;48.586;10.032;2023-04-25T10:22:39;3.60;;;3.30;;
1507;SDS011;745;48.586;10.032;2023-04-25T10:27:12;4.10;;;3.70;;
1507;SDS011;745;48.586;10.032;2023-04-25T10:31:46;4.30;;;3.90;;
1507;SDS011;745;48.586;10.032;2023-04-25T10:36:18;5.50;;;4.40;;
1507;SDS011;745;48.586;10.032;2023-04-25T10:41:02;5.67;;;5.10;;
1507;SDS011;745;48.586;10.032;2023-04-25T10:45:50;5.47;;;4.87;;
1507;SDS011;745;48.586;10.032;2023-04-25T10:50:22;5.80;;;5.20;;
1507;SDS011;745;48.586;10.032;2023-04-25T10:54:53;5.40;;;4.90;;
1507;SDS011;745;48.586;10.032;2023-04-25T10:59:24;6.10;;;5.50;;
1507;SDS011;745;48.586;10.032;2023-04-25T11:03:57;4.23;;;3.87;;
1507;SDS011;745;48.586;10.032;2023-04-25T11:08:42;5.33;;;4.83;;
1507;SDS011;745;48.586;10.032;2023-04-25T11:13:20;4.87;;;4.30;;
1507;SDS011;745;48.586;10.032;2023-04-25T11:17:51;3.17;;;2.87;;
1507;SDS011;745;48.586;10.032;2023-04-25T11:22:22;3.23;;;2.93;;
1507;SDS011;745;48.586;10.032;2023-04-25T11:26:53;2.20;;;2.00;;
1507;SDS011;745;48.586;10.032;2023-04-25T11:31:24;1.80;;;1.70;;
1507;SDS011;745;48.586;10.032;2023-04-25T11:35:55;2.73;;;2.53;;
1507;SDS011;745;48.586;10.032;2023-04-25T11:40:29;2.60;;;2.40;;
1507;SDS011;745;48.586;10.032;2023-04-25T11:45:00;3.70;;;3.40;;
1507;SDS011;745;48.586;10.032;2023-04-25T11:49:31;4.07;;;3.60;;
1507;SDS011;745;48.586;10.032;2023-04-25T11:54:02;4.27;;;3.87;;
1507;SDS011;745;48.586;10.032;2023-04-25T11:58:32;5.20;;;3.83;;
1507;SDS011;745;48.586;10.032;2023-04-25T12:03:29;4.03;;;3.63;;
1507;SDS011;745;48.586;10.032;2023-04-25T12:08:11;3.57;;;3.27;;
1507;SDS011;745;48.586;10.032;2023-04-25T12:12:45;4.60;;;4.20;;
1507;SDS011;745;48.586;10.032;2023-04-25T12:17:16;5.37;;;4.63;;
1507;SDS011;745;48.586;10.032;2023-04-25T12:21:47;4.40;;;4.00;;
1507;SDS011;745;48.586;10.032;2023-04-25T12:26:18;3.63;;;3.10;;
1507;SDS011;745;48.586;10.032;2023-04-25T12:30:57;2.87;;;2.67;;
1507;SDS011;745;48.586;10.032;2023-04-25T12:35:28;3.00;;;2.70;;
1507;SDS011;745;48.586;10.032;2023-04-25T12:39:58;3.30;;;3.07;;
1507;SDS011;745;48.586;10.032;2023-04-25T12:44:29;3.10;;;2.87;;
1507;SDS011;745;48.586;10.032;2023-04-25T12:48:59;3.43;;;3.10;;
1507;SDS011;745;48.586;10.032;2023-04-25T12:53:30;3.10;;;2.80;;
1507;SDS011;745;48.586;10.032;2023-04-25T12:58:00;3.80;;;3.20;;
1507;SDS011;745;48.586;10.032;2023-04-25T13:02:31;3.30;;;3.00;;
1507;SDS011;745;48.586;10.032;2023-04-25T13:07:01;3.57;;;2.90;;
1507;SDS011;745;48.586;10.032;2023-04-25T13:11:31;4.73;;;4.07;;
1507;SDS011;745;48.586;10.032;2023-04-25T13:16:02;4.93;;;3.90;;
1507;SDS011;745;48.586;10.032;2023-04-25T13:20:32;5.00;;;3.00;;
1507;SDS011;745;48.586;10.032;2023-04-25T13:25:03;4.00;;;3.60;;
1507;SDS011;745;48.586;10.032;2023-04-25T13:29:34;4.80;;;3.77;;
1507;SDS011;745;48.586;10.032;2023-04-25T13:34:05;3.70;;;3.40;;
1507;SDS011;745;48.586;10.032;2023-04-25T13:38:35;5.50;;;3.33;;
1507;SDS011;745;48.586;10.032;2023-04-25T13:43:06;4.40;;;4.00;;
1507;SDS011;745;48.586;10.032;2023-04-25T13:47:36;4.30;;;3.90;;
1507;SDS011;745;48.586;10.032;2023-04-25T13:52:07;4.13;;;3.80;;
1507;SDS011;745;48.586;10.032;2023-04-25T13:56:37;3.50;;;3.20;;
1507;SDS011;745;48.586;10.032;2023-04-25T14:01:08;5.00;;;3.40;;
1507;SDS011;745;48.586;10.032;2023-04-25T14:05:38;5.60;;;4.50;;
1507;SDS011;745;48.586;10.032;2023-04-25T14:10:10;5.53;;;5.00;;
1507;SDS011;745;48.586;10.032;2023-04-25T14:14:40;7.63;;;4.90;;
1507;SDS011;745;48.586;10.032;2023-04-25T14:19:11;4.80;;;4.37;;
1507;SDS011;745;48.586;10.032;2023-04-25T14:23:41;5.93;;;4.83;;
1507;SDS011;745;48.586;10.032;2023-04-25T14:28:12;4.80;;;4.27;;
1507;SDS011;745;48.586;10.032;2023-04-25T14:32:42;5.47;;;4.97;;
1507;SDS011;745;48.586;10.032;2023-04-25T14:37:13;4.90;;;4.40;;
1507;SDS011;745;48.586;10.032;2023-04-25T14:41:45;5.37;;;4.23;;
1507;SDS011;745;48.586;10.032;2023-04-25T14:46:15;5.20;;;4.40;;
1507;SDS011;745;48.586;10.032;2023-04-25T14:50:46;4.70;;;3.83;;
1507;SDS011;745;48.586;10.032;2023-04-25T14:55:16;4.53;;;4.07;;
1507;SDS011;745;48.586;10.032;2023-04-25T14:59:46;4.80;;;4.30;;
1507;SDS011;745;48.586;10.032;2023-04-25T15:04:17;6.23;;;4.80;;
1507;SDS011;745;48.586;10.032;2023-04-25T15:08:47;5.70;;;5.03;;
1507;SDS011;745;48.586;10.032;2023-04-25T15:13:18;8.73;;;5.03;;
1507;SDS011;745;48.586;10.032;2023-04-25T15:17:49;5.40;;;4.90;;
1507;SDS011;745;48.586;10.032;2023-04-25T15:22:19;5.93;;;4.80;;
1507;SDS011;745;48.586;10.032;2023-04-25T15:26:49;5.30;;;4.80;;
1507;SDS011;745;48.586;10.032;2023-04-25T15:31:20;5.93;;;5.33;;
1507;SDS011;745;48.586;10.032;2023-04-25T15:35:51;5.70;;;4.93;;
1507;SDS011;745;48.586;10.032;2023-04-25T15:40:22;6.03;;;5.43;;
1507;SDS011;745;48.586;10.032;2023-04-25T15:44:52;6.20;;;5.60;;
1507;SDS011;745;48.586;10.032;2023-04-25T15:49:23;5.70;;;4.90;;
1507;SDS011;745;48.586;10.032;2023-04-25T15:53:53;9.17;;;6.97;;
1507;SDS011;745;48.586;10.032;2023-04-25T15:58:24;7.10;;;5.90;;
1507;SDS011;745;48.586;10.032;2023-04-25T16:02:56;5.87;;;5.27;;
1507;SDS011;745;48.586;10.032;2023-04-25T16:07:26;7.33;;;6.33;;
1507;SDS011;745;48.586;10.032;2023-04-25T16:11:56;8.10;;;6.60;;
1507;SDS011;745;48.586;10.032;2023-04-25T16:16:27;6.40;;;5.73;;
1507;SDS011;745;48.586;10.032;2023-04-25T16:20:57;8.03;;;6.00;;
1507;SDS011;745;48.586;10.032;2023-04-25T16:25:28;6.77;;;5.63;;
1507;SDS011;745;48.586;10.032;2023-04-25T16:29:58;7.00;;;5.80;;
1507;SDS011;745;48.586;10.032;2023-04-25T16:34:28;6.80;;;6.10;;
1507;SDS011;745;48.586;10.032;2023-04-25T16:38:59;6.67;;;5.80;;
1507;SDS011;745;48.586;10.032;2023-04-25T16:43:32;8.70;;;5.70;;
1507;SDS011;745;48.586;10.032;2023-04-25T16:48:03;3.20;;;2.90;;
1507;SDS011;745;48.586;10.032;2023-04-25T16:52:33;2.00;;;1.90;;
1507;SDS011;745;48.586;10.032;2023-04-25T16:57:03;2.77;;;1.90;;
1507;SDS011;745;48.586;10.032;2023-04-25T17:01:34;3.03;;;2.73;;
1507;SDS011;745;48.586;10.032;2023-04-25T17:06:05;4.30;;;2.90;;
1507;SDS011;745;48.586;10.032;2023-04-25T17:10:36;2.60;;;2.40;;
1507;SDS011;745;48.586;10.032;2023-04-25T17:15:06;3.80;;;2.60;;
1507;SDS011;745;48.586;10.032;2023-04-25T17:19:38;3.90;;;3.40;;
1507;SDS011;745;48.586;10.032;2023-04-25T17:24:08;4.30;;;3.37;;
1507;SDS011;745;48.586;10.032;2023-04-25T17:28:38;6.90;;;3.43;;
1507;SDS011;745;48.586;10.032;2023-04-25T17:33:11;2.90;;;2.60;;
1507;SDS011;745;48.586;10.032;2023-04-25T17:37:41;3.30;;;3.00;;
1507;SDS011;745;48.586;10.032;2023-04-25T17:42:12;3.33;;;2.43;;
1507;SDS011;745;48.586;10.032;2023-04-25T17:46:43;3.20;;;2.90;;
1507;SDS011;745;48.586;10.032;2023-04-25T17:51:13;3.33;;;3.00;;
1507;SDS011;745;48.586;10.032;2023-04-25T17:55:44;3.07;;;2.77;;
1507;SDS011;745;48.586;10.032;2023-04-25T18:00:14;3.30;;;3.00;;
1507;SDS011;745;48.586;10.032;2023-04-25T18:04:45;4.33;;;3.33;;
1507;SDS011;745;48.586;10.032;2023-04-25T18:09:15;4.93;;;4.20;;
1507;SDS011;745;48.586;10.032;2023-04-25T18:13:46;3.87;;;3.47;;
1507;SDS011;745;48.586;10.032;2023-04-25T18:18:16;4.90;;;4.40;;
1507;SDS011;745;48.586;10.032;2023-04-25T18:22:54;6.20;;;5.20;;
1507;SDS011;745;48.586;10.032;2023-04-25T18:27:24;4.67;;;4.20;;
1507;SDS011;745;48.586;10.032;2023-04-25T18:31:55;5.27;;;4.60;;
1507;SDS011;745;48.586;10.032;2023-04-25T18:36:25;5.97;;;4.70;;
1507;SDS011;745;48.586;10.032;2023-04-25T18:40:57;5.90;;;5.30;;
1507;SDS011;745;48.586;10.032;2023-04-25T18:45:28;6.80;;;6.10;;
1507;SDS011;745;48.586;10.032;2023-04-25T18:49:58;10.63;;;8.00;;
1507;SDS011;745;48.586;10.032;2023-04-25T18:54:28;9.73;;;7.30;;
1507;SDS011;745;48.586;10.032;2023-04-25T18:58:59;10.00;;;6.80;;
1507;SDS011;745;48.586;10.032;2023-04-25T19:03:29;9.27;;;8.13;;
1507;SDS011;745;48.586;10.032;2023-04-25T19:08:00;9.10;;;7.13;;
1507;SDS011;745;48.586;10.032;2023-04-25T19:12:30;10.50;;;8.90;;
1507;SDS011;745;48.586;10.032;2023-04-25T19:17:02;10.60;;;8.07;;
1507;SDS011;745;48.586;10.032;2023-04-25T19:21:33;11.40;;;9.00;;
1507;SDS011;745;48.586;10.032;2023-04-25T19:26:05;13.33;;;9.13;;
1507;SDS011;745;48.586;10.032;2023-04-25T19:30:36;12.67;;;10.23;;
1507;SDS011;745;48.586;10.032;2023-04-25T19:35:08;10.77;;;8.63;;
1507;SDS011;745;48.586;10.032;2023-04-25T19:39:39;9.50;;;8.00;;
1507;SDS011;745;48.586;10.032;2023-04-25T19:44:10;11.10;;;8.00;;
1507;SDS011;745;48.586;10.032;2023-04-25T19:48:40;10.17;;;7.90;;
1507;SDS011;745;48.586;10.032;2023-04-25T19:53:10;13.40;;;10.33;;
1507;SDS011;745;48.586;10.032;2023-04-25T19:57:41;7.93;;;7.03;;
1507;SDS011;745;48.586;10.032;2023-04-25T20:02:11;9.53;;;6.67;;
1507;SDS011;745;48.586;10.032;2023-04-25T20:06:47;14.10;;;10.23;;
1507;SDS011;745;48.586;10.032;2023-04-25T20:11:18;11.73;;;8.53;;
1507;SDS011;745;48.586;10.032;2023-04-25T20:15:48;8.50;;;7.60;;
1507;SDS011;745;48.586;10.032;2023-04-25T20:20:19;10.20;;;7.37;;
1507;SDS011;745;48.586;10.032;2023-04-25T20:24:49;10.30;;;5.93;;
1507;SDS011;745;48.586;10.032;2023-04-25T20:29:22;10.03;;;6.10;;
1507;SDS011;745;48.586;10.032;2023-04-25T20:33:52;8.60;;;6.43;;
1507;SDS011;745;48.586;10.032;2023-04-25T20:38:24;9.63;;;5.60;;
1507;SDS011;745;48.586;10.032;2023-04-25T20:42:54;8.40;;;5.60;;
1507;SDS011;745;48.586;10.032;2023-04-25T20:47:25;6.13;;;4.97;;
1507;SDS011;745;48.586;10.032;2023-04-25T20:51:56;6.80;;;5.53;;
1507;SDS011;745;48.586;10.032;2023-04-25T20:56:26;8.17;;;6.20;;
1507;SDS011;745;48.586;10.032;2023-04-25T21:00:57;7.53;;;6.00;;
1507;SDS011;745;48.586;10.032;2023-04-25T21:05:30;8.43;;;5.97;;
1507;SDS011;745;48.586;10.032;2023-04-25T21:10:01;10.93;;;7.90;;
1507;SDS011;745;48.586;10.032;2023-04-25T21:14:31;12.00;;;6.80;;
1507;SDS011;745;48.586;10.032;2023-04-25T21:19:03;10.83;;;6.97;;
1507;SDS011;745;48.586;10.032;2023-04-25T21:23:33;13.40;;;8.60;;
1507;SDS011;745;48.586;10.032;2023-04-25T21:28:04;11.77;;;8.00;;
1507;SDS011;745;48.586;10.032;2023-04-25T21:32:35;10.57;;;7.30;;
1507;SDS011;745;48.586;10.032;2023-04-25T21:37:07;9.90;;;7.50;;
1507;SDS011;745;48.586;10.032;2023-04-25T21:41:38;9.07;;;6.53;;
1507;SDS011;745;48.586;10.032;2023-04-25T21:46:15;12.50;;;8.23;;
1507;SDS011;745;48.586;10.032;2023-04-25T21:50:45;11.43;;;8.83;;
1507;SDS011;745;48.586;10.032;2023-04-25T21:55:16;14.93;;;10.17;;
1507;SDS011;745;48.586;10.032;2023-04-25T21:59:46;10.50;;;7.50;;
1507;SDS011;745;48.586;10.032;2023-04-25T22:04:17;14.50;;;9.70;;
1507;SDS011;745;48.586;10.032;2023-04-25T22:08:48;16.50;;;9.27;;
1507;SDS011;745;48.586;10.032;2023-04-25T22:13:18;14.60;;;8.77;;
1507;SDS011;745;48.586;10.032;2023-04-25T22:17:49;14.13;;;8.70;;
1507;SDS011;745;48.586;10.032;2023-04-25T22:22:21;12.70;;;9.40;;
1507;SDS011;745;48.586;10.032;2023-04-25T22:26:51;11.57;;;7.87;;
1507;SDS011;745;48.586;10.032;2023-04-25T22:31:21;15.07;;;10.63;;
1507;SDS011;745;48.586;10.032;2023-04-25T22:35:52;18.03;;;10.83;;
1507;SDS011;745;48.586;10.032;2023-04-25T22:40:22;19.07;;;9.67;;
1507;SDS011;745;48.586;10.032;2023-04-25T22:44:53;14.60;;;8.90;;
1507;SDS011;745;48.586;10.032;2023-04-25T22:49:23;17.73;;;10.70;;
1507;SDS011;745;48.586;10.032;2023-04-25T22:53:54;15.70;;;10.97;;
1507;SDS011;745;48.586;10.032;2023-04-25T22:58:25;14.30;;;11.10;;
1507;SDS011;745;48.586;10.032;2023-04-25T23:02:55;16.67;;;11.63;;
1507;SDS011;745;48.586;10.032;2023-04-25T23:07:28;24.33;;;11.90;;
1507;SDS011;745;48.586;10.032;2023-04-25T23:12:00;16.13;;;10.37;;
1507;SDS011;745;48.586;10.032;2023-04-25T23:16:31;17.83;;;11.23;;
1507;SDS011;745;48.586;10.032;2023-04-25T23:21:02;15.83;;;10.60;;
1507;SDS011;745;48.586;10.032;2023-04-25T23:25:36;16.03;;;9.50;;
1507;SDS011;745;48.586;10.032;2023-04-25T23:30:08;15.33;;;8.50;;
1507;SDS011;745;48.586;10.032;2023-04-25T23:34:46;10.90;;;7.60;;
1507;SDS011;745;48.586;10.032;2023-04-25T23:39:19;15.47;;;8.27;;
1507;SDS011;745;48.586;10.032;2023-04-25T23:43:52;13.00;;;7.83;;
1507;SDS011;745;48.586;10.032;2023-04-25T23:48:23;14.67;;;9.10;;
1507;SDS011;745;48.586;10.032;2023-04-25T23:52:54;14.40;;;7.60;;
1507;SDS011;745;48.586;10.032;2023-04-25T23:57:24;12.70;;;8.77;;
